Terminal Aerodrome Forecast
Issued by NWS La Crosse, WI

Home | Current Version | Previous Version | Text Only | Print | Product List | Glossary On
Versions: 1 2 3 4 5 6 7 8 9 10 11 12 13 14 15 16 17 18 19 20 21 22 23 24
000
FTUS43 KARX 012331
TAFRST
TAF
KRST 012331Z 0200/0224 19020G28KT P6SM BKN150
     FM020400 20017KT P6SM -SHRA VCTS OVC035CB
      TEMPO 0205/0207 2SM -TSRA BKN025CB
     FM020800 27012KT P6SM -SHRA BKN050
     FM021300 31012KT P6SM SCT100
     FM021700 29015G25KT P6SM SKC=

USA.gov is the U.S. government's official web portal to all federal, state and local government web resources and services.